GCLA/SPC METAR and TAF weather

Enter ICAO airport designator
Station Type Date Time Source
GCLA METAR 2020/11/25 23:00 UTC NOAA

GCLA 252300Z AUTO 21006KT 160V290 CAVOK 19/09 Q1020


Station Type Date Time Source
GCLA Decoded METAR 2020/11/25 23:00 UTC NOAA

La Palma / Aeropuerto, Spain (GCLA) 28-37N 017-45W 31M
Nov 25, 2020 - 06:00 PM EST / 2020.11.25 2300 UTC
Wind: from the SSW (210 degrees) at 7 MPH (6 KT) (direction variable):0
Visibility: greater than 7 mile(s):0
Temperature: 66 F (19 C)
Dew Point: 48 F (9 C)
Relative Humidity: 52%
Pressure (altimeter): 30.12 in. Hg (1020 hPa)
ob: GCLA 252300Z AUTO 21006KT 160V290 CAVOK 19/09 Q1020
cycle: 23

Station Type Date Time Source
GCLA TAF 2020/11/25 22:39 UTC NOAA

TAF
AMD TAF
AMD GCLA 252236Z 2522/2621 01020KT 9999 SCT030 TX19/2614Z TN16/2607Z
TEMPO 2522/2524 01020G30KT
BECMG 2523/2601 27005KT

Example: see airport list